sensor_id;sensor_type;location;lat;lon;timestamp;P1;durP1;ratioP1;P2;durP2;ratioP2
19942;SDS011;10133;50.956;17.276;2023-02-01T00:00:29;2.83;;;0.30;;
19942;SDS011;10133;50.956;17.276;2023-02-01T00:02:59;5.47;;;0.90;;
19942;SDS011;10133;50.956;17.276;2023-02-01T00:05:26;5.77;;;0.40;;
19942;SDS011;10133;50.956;17.276;2023-02-01T00:07:56;3.67;;;0.60;;
19942;SDS011;10133;50.956;17.276;2023-02-01T00:10:22;2.83;;;0.50;;
19942;SDS011;10133;50.956;17.276;2023-02-01T00:12:50;3.47;;;0.50;;
19942;SDS011;10133;50.956;17.276;2023-02-01T00:15:16;4.27;;;0.50;;
19942;SDS011;10133;50.956;17.276;2023-02-01T00:17:44;4.03;;;0.53;;
19942;SDS011;10133;50.956;17.276;2023-02-01T00:20:11;4.13;;;0.60;;
19942;SDS011;10133;50.956;17.276;2023-02-01T00:22:38;6.97;;;0.80;;
19942;SDS011;10133;50.956;17.276;2023-02-01T00:25:05;7.50;;;0.80;;
19942;SDS011;10133;50.956;17.276;2023-02-01T00:27:32;2.60;;;0.60;;
19942;SDS011;10133;50.956;17.276;2023-02-01T00:29:59;3.40;;;0.43;;
19942;SDS011;10133;50.956;17.276;2023-02-01T00:32:26;7.80;;;0.80;;
19942;SDS011;10133;50.956;17.276;2023-02-01T00:34:53;2.87;;;0.60;;
19942;SDS011;10133;50.956;17.276;2023-02-01T00:37:20;3.67;;;0.60;;
19942;SDS011;10133;50.956;17.276;2023-02-01T00:39:47;4.43;;;0.80;;
19942;SDS011;10133;50.956;17.276;2023-02-01T00:42:15;3.00;;;0.50;;
19942;SDS011;10133;50.956;17.276;2023-02-01T00:44:42;6.50;;;0.80;;
19942;SDS011;10133;50.956;17.276;2023-02-01T00:47:09;5.60;;;0.87;;
19942;SDS011;10133;50.956;17.276;2023-02-01T00:49:36;6.17;;;0.70;;
19942;SDS011;10133;50.956;17.276;2023-02-01T00:52:03;3.40;;;0.60;;
19942;SDS011;10133;50.956;17.276;2023-02-01T00:54:30;2.47;;;0.70;;
19942;SDS011;10133;50.956;17.276;2023-02-01T00:56:57;1.43;;;0.53;;
19942;SDS011;10133;50.956;17.276;2023-02-01T00:59:24;2.30;;;0.50;;
19942;SDS011;10133;50.956;17.276;2023-02-01T01:01:51;3.03;;;0.50;;
19942;SDS011;10133;50.956;17.276;2023-02-01T01:04:17;1.57;;;0.70;;
19942;SDS011;10133;50.956;17.276;2023-02-01T01:06:44;3.10;;;0.60;;
19942;SDS011;10133;50.956;17.276;2023-02-01T01:09:11;3.37;;;1.00;;
19942;SDS011;10133;50.956;17.276;2023-02-01T01:11:38;2.47;;;0.80;;
19942;SDS011;10133;50.956;17.276;2023-02-01T01:14:06;3.70;;;1.20;;
19942;SDS011;10133;50.956;17.276;2023-02-01T01:16:36;4.53;;;0.97;;
19942;SDS011;10133;50.956;17.276;2023-02-01T01:19:03;2.70;;;0.50;;
19942;SDS011;10133;50.956;17.276;2023-02-01T01:21:30;3.30;;;0.80;;
19942;SDS011;10133;50.956;17.276;2023-02-01T01:23:57;4.67;;;0.90;;
19942;SDS011;10133;50.956;17.276;2023-02-01T01:26:25;5.70;;;1.10;;
19942;SDS011;10133;50.956;17.276;2023-02-01T01:28:54;3.40;;;0.90;;
19942;SDS011;10133;50.956;17.276;2023-02-01T01:31:22;2.77;;;0.90;;
19942;SDS011;10133;50.956;17.276;2023-02-01T01:33:51;4.77;;;1.07;;
19942;SDS011;10133;50.956;17.276;2023-02-01T01:36:20;5.13;;;1.20;;
19942;SDS011;10133;50.956;17.276;2023-02-01T01:38:47;6.93;;;1.73;;
19942;SDS011;10133;50.956;17.276;2023-02-01T01:41:16;6.03;;;1.50;;
19942;SDS011;10133;50.956;17.276;2023-02-01T01:43:52;11.17;;;2.07;;
19942;SDS011;10133;50.956;17.276;2023-02-01T01:46:31;5.43;;;1.47;;
19942;SDS011;10133;50.956;17.276;2023-02-01T01:49:08;5.77;;;1.20;;
19942;SDS011;10133;50.956;17.276;2023-02-01T01:51:40;8.73;;;1.30;;
19942;SDS011;10133;50.956;17.276;2023-02-01T01:54:18;7.40;;;1.03;;
19942;SDS011;10133;50.956;17.276;2023-02-01T01:56:47;6.03;;;0.80;;
19942;SDS011;10133;50.956;17.276;2023-02-01T01:59:17;3.90;;;0.50;;
19942;SDS011;10133;50.956;17.276;2023-02-01T02:01:44;9.40;;;0.90;;
19942;SDS011;10133;50.956;17.276;2023-02-01T02:04:12;3.23;;;0.80;;
19942;SDS011;10133;50.956;17.276;2023-02-01T02:06:44;3.63;;;1.13;;
19942;SDS011;10133;50.956;17.276;2023-02-01T02:09:30;5.37;;;1.20;;
19942;SDS011;10133;50.956;17.276;2023-02-01T02:11:57;8.47;;;1.50;;
19942;SDS011;10133;50.956;17.276;2023-02-01T02:14:24;9.27;;;1.60;;
19942;SDS011;10133;50.956;17.276;2023-02-01T02:17:39;5.57;;;1.50;;
19942;SDS011;10133;50.956;17.276;2023-02-01T02:26:04;8.10;;;2.20;;
19942;SDS011;10133;50.956;17.276;2023-02-01T02:42:13;11.70;;;2.90;;
19942;SDS011;10133;50.956;17.276;2023-02-01T02:48:12;14.50;;;3.10;;
19942;SDS011;10133;50.956;17.276;2023-02-01T02:56:35;8.60;;;1.87;;
19942;SDS011;10133;50.956;17.276;2023-02-01T02:59:23;13.67;;;2.37;;
19942;SDS011;10133;50.956;17.276;2023-02-01T03:02:11;11.63;;;2.70;;
19942;SDS011;10133;50.956;17.276;2023-02-01T03:04:57;10.13;;;1.87;;
19942;SDS011;10133;50.956;17.276;2023-02-01T03:10:13;14.07;;;2.30;;
19942;SDS011;10133;50.956;17.276;2023-02-01T03:12:50;15.27;;;2.33;;
19942;SDS011;10133;50.956;17.276;2023-02-01T03:15:24;17.37;;;2.17;;
19942;SDS011;10133;50.956;17.276;2023-02-01T03:17:58;18.00;;;2.40;;
19942;SDS011;10133;50.956;17.276;2023-02-01T03:20:28;14.20;;;2.00;;
19942;SDS011;10133;50.956;17.276;2023-02-01T03:22:57;12.60;;;2.23;;
19942;SDS011;10133;50.956;17.276;2023-02-01T03:25:30;15.47;;;2.30;;
19942;SDS011;10133;50.956;17.276;2023-02-01T03:30:31;14.77;;;2.17;;
19942;SDS011;10133;50.956;17.276;2023-02-01T03:33:04;14.30;;;2.50;;
19942;SDS011;10133;50.956;17.276;2023-02-01T03:43:44;12.57;;;2.27;;
19942;SDS011;10133;50.956;17.276;2023-02-01T03:46:17;12.00;;;2.27;;
19942;SDS011;10133;50.956;17.276;2023-02-01T03:48:49;13.33;;;2.50;;
19942;SDS011;10133;50.956;17.276;2023-02-01T03:51:19;14.03;;;2.60;;
19942;SDS011;10133;50.956;17.276;2023-02-01T03:53:48;14.57;;;2.67;;
19942;SDS011;10133;50.956;17.276;2023-02-01T03:56:17;9.10;;;2.00;;
19942;SDS011;10133;50.956;17.276;2023-02-01T03:58:47;8.20;;;2.20;;
19942;SDS011;10133;50.956;17.276;2023-02-01T04:01:26;6.80;;;1.87;;
19942;SDS011;10133;50.956;17.276;2023-02-01T04:03:57;13.43;;;2.50;;
19942;SDS011;10133;50.956;17.276;2023-02-01T04:06:25;11.23;;;2.27;;
19942;SDS011;10133;50.956;17.276;2023-02-01T04:08:52;11.80;;;2.10;;
19942;SDS011;10133;50.956;17.276;2023-02-01T04:11:19;9.77;;;2.00;;
19942;SDS011;10133;50.956;17.276;2023-02-01T04:13:46;12.63;;;2.00;;
19942;SDS011;10133;50.956;17.276;2023-02-01T04:16:13;12.33;;;1.90;;
19942;SDS011;10133;50.956;17.276;2023-02-01T04:18:40;6.47;;;1.77;;
19942;SDS011;10133;50.956;17.276;2023-02-01T04:21:07;12.33;;;2.10;;
19942;SDS011;10133;50.956;17.276;2023-02-01T04:23:34;13.37;;;2.73;;
19942;SDS011;10133;50.956;17.276;2023-02-01T04:26:03;12.00;;;2.10;;
19942;SDS011;10133;50.956;17.276;2023-02-01T04:28:30;10.93;;;2.10;;
19942;SDS011;10133;50.956;17.276;2023-02-01T04:30:57;7.67;;;2.00;;
19942;SDS011;10133;50.956;17.276;2023-02-01T04:33:25;10.27;;;2.33;;
19942;SDS011;10133;50.956;17.276;2023-02-01T04:35:52;8.93;;;1.97;;
19942;SDS011;10133;50.956;17.276;2023-02-01T04:38:19;9.70;;;2.20;;
19942;SDS011;10133;50.956;17.276;2023-02-01T04:40:47;15.33;;;2.00;;
19942;SDS011;10133;50.956;17.276;2023-02-01T04:43:15;9.73;;;2.27;;
19942;SDS011;10133;50.956;17.276;2023-02-01T04:45:46;14.90;;;2.30;;
19942;SDS011;10133;50.956;17.276;2023-02-01T04:48:15;9.83;;;2.03;;
19942;SDS011;10133;50.956;17.276;2023-02-01T04:50:44;11.33;;;2.40;;
19942;SDS011;10133;50.956;17.276;2023-02-01T04:53:14;16.13;;;1.93;;
19942;SDS011;10133;50.956;17.276;2023-02-01T04:55:42;6.37;;;1.80;;
19942;SDS011;10133;50.956;17.276;2023-02-01T04:58:10;12.73;;;2.33;;
19942;SDS011;10133;50.956;17.276;2023-02-01T05:00:37;16.83;;;2.67;;
19942;SDS011;10133;50.956;17.276;2023-02-01T05:03:04;17.77;;;2.10;;
19942;SDS011;10133;50.956;17.276;2023-02-01T05:05:31;12.40;;;2.50;;
19942;SDS011;10133;50.956;17.276;2023-02-01T05:07:58;13.20;;;2.10;;
19942;SDS011;10133;50.956;17.276;2023-02-01T05:10:25;18.33;;;2.60;;
19942;SDS011;10133;50.956;17.276;2023-02-01T05:12:52;8.03;;;1.90;;
19942;SDS011;10133;50.956;17.276;2023-02-01T05:15:37;14.80;;;2.73;;
19942;SDS011;10133;50.956;17.276;2023-02-01T05:18:04;13.57;;;2.30;;
19942;SDS011;10133;50.956;17.276;2023-02-01T05:20:31;13.43;;;3.40;;
19942;SDS011;10133;50.956;17.276;2023-02-01T05:22:58;10.50;;;1.83;;
19942;SDS011;10133;50.956;17.276;2023-02-01T05:25:25;14.30;;;2.20;;
19942;SDS011;10133;50.956;17.276;2023-02-01T05:27:53;15.30;;;2.73;;
19942;SDS011;10133;50.956;17.276;2023-02-01T05:30:20;13.97;;;2.67;;
19942;SDS011;10133;50.956;17.276;2023-02-01T05:32:51;12.80;;;2.13;;
19942;SDS011;10133;50.956;17.276;2023-02-01T05:35:18;11.27;;;2.40;;
19942;SDS011;10133;50.956;17.276;2023-02-01T05:37:45;11.30;;;2.07;;
19942;SDS011;10133;50.956;17.276;2023-02-01T05:40:12;11.47;;;2.27;;
19942;SDS011;10133;50.956;17.276;2023-02-01T05:42:39;11.40;;;2.13;;
19942;SDS011;10133;50.956;17.276;2023-02-01T05:45:06;10.03;;;2.07;;
19942;SDS011;10133;50.956;17.276;2023-02-01T05:47:33;10.17;;;2.37;;
19942;SDS011;10133;50.956;17.276;2023-02-01T05:50:00;12.97;;;2.20;;
19942;SDS011;10133;50.956;17.276;2023-02-01T05:52:27;10.33;;;2.00;;
19942;SDS011;10133;50.956;17.276;2023-02-01T05:54:54;10.13;;;2.03;;
19942;SDS011;10133;50.956;17.276;2023-02-01T05:57:21;9.30;;;1.93;;
19942;SDS011;10133;50.956;17.276;2023-02-01T05:59:48;14.90;;;2.37;;
19942;SDS011;10133;50.956;17.276;2023-02-01T06:02:15;12.00;;;2.20;;
19942;SDS011;10133;50.956;17.276;2023-02-01T06:04:42;10.67;;;2.47;;
19942;SDS011;10133;50.956;17.276;2023-02-01T06:07:09;15.00;;;2.63;;
19942;SDS011;10133;50.956;17.276;2023-02-01T06:09:36;11.00;;;1.80;;
19942;SDS011;10133;50.956;17.276;2023-02-01T06:12:03;14.87;;;2.30;;
19942;SDS011;10133;50.956;17.276;2023-02-01T06:14:31;12.27;;;2.30;;
19942;SDS011;10133;50.956;17.276;2023-02-01T06:16:57;12.87;;;2.43;;
19942;SDS011;10133;50.956;17.276;2023-02-01T06:19:25;11.00;;;2.30;;
19942;SDS011;10133;50.956;17.276;2023-02-01T06:21:51;10.10;;;2.50;;
19942;SDS011;10133;50.956;17.276;2023-02-01T06:24:18;12.13;;;2.20;;
19942;SDS011;10133;50.956;17.276;2023-02-01T06:26:46;9.63;;;2.03;;
19942;SDS011;10133;50.956;17.276;2023-02-01T06:29:13;9.57;;;2.20;;
19942;SDS011;10133;50.956;17.276;2023-02-01T06:31:39;8.93;;;2.00;;
19942;SDS011;10133;50.956;17.276;2023-02-01T06:34:08;10.27;;;2.23;;
19942;SDS011;10133;50.956;17.276;2023-02-01T06:36:35;14.87;;;2.57;;
19942;SDS011;10133;50.956;17.276;2023-02-01T06:39:02;6.43;;;1.80;;
19942;SDS011;10133;50.956;17.276;2023-02-01T06:41:29;9.50;;;1.90;;
19942;SDS011;10133;50.956;17.276;2023-02-01T06:43:56;13.80;;;2.30;;
19942;SDS011;10133;50.956;17.276;2023-02-01T06:46:23;14.60;;;2.37;;
19942;SDS011;10133;50.956;17.276;2023-02-01T06:48:50;6.07;;;1.87;;
19942;SDS011;10133;50.956;17.276;2023-02-01T06:51:21;11.23;;;1.80;;
19942;SDS011;10133;50.956;17.276;2023-02-01T06:53:49;12.63;;;2.13;;
19942;SDS011;10133;50.956;17.276;2023-02-01T06:56:17;10.03;;;2.13;;
19942;SDS011;10133;50.956;17.276;2023-02-01T06:58:44;14.20;;;2.53;;
19942;SDS011;10133;50.956;17.276;2023-02-01T07:01:11;10.63;;;2.40;;
19942;SDS011;10133;50.956;17.276;2023-02-01T07:03:39;11.77;;;2.50;;
19942;SDS011;10133;50.956;17.276;2023-02-01T07:06:06;12.07;;;2.27;;
19942;SDS011;10133;50.956;17.276;2023-02-01T07:08:34;7.50;;;1.87;;
19942;SDS011;10133;50.956;17.276;2023-02-01T07:11:03;10.63;;;1.97;;
19942;SDS011;10133;50.956;17.276;2023-02-01T07:13:34;14.40;;;2.03;;
19942;SDS011;10133;50.956;17.276;2023-02-01T07:16:02;13.47;;;2.23;;
19942;SDS011;10133;50.956;17.276;2023-02-01T07:18:30;9.97;;;2.60;;
19942;SDS011;10133;50.956;17.276;2023-02-01T07:20:57;12.90;;;2.50;;
19942;SDS011;10133;50.956;17.276;2023-02-01T07:23:25;10.17;;;2.07;;
19942;SDS011;10133;50.956;17.276;2023-02-01T07:25:57;9.00;;;2.10;;
19942;SDS011;10133;50.956;17.276;2023-02-01T07:28:25;12.20;;;1.93;;
19942;SDS011;10133;50.956;17.276;2023-02-01T07:30:54;9.63;;;1.97;;
19942;SDS011;10133;50.956;17.276;2023-02-01T07:33:22;12.33;;;2.20;;
19942;SDS011;10133;50.956;17.276;2023-02-01T07:35:53;12.33;;;2.37;;
19942;SDS011;10133;50.956;17.276;2023-02-01T07:38:20;8.83;;;2.10;;
19942;SDS011;10133;50.956;17.276;2023-02-01T07:40:47;6.90;;;1.87;;
19942;SDS011;10133;50.956;17.276;2023-02-01T07:43:14;8.50;;;1.73;;
19942;SDS011;10133;50.956;17.276;2023-02-01T07:45:41;11.33;;;2.63;;
19942;SDS011;10133;50.956;17.276;2023-02-01T07:48:08;7.87;;;2.10;;
19942;SDS011;10133;50.956;17.276;2023-02-01T07:50:35;18.27;;;3.13;;
19942;SDS011;10133;50.956;17.276;2023-02-01T07:53:02;11.77;;;2.37;;
19942;SDS011;10133;50.956;17.276;2023-02-01T07:55:29;12.70;;;2.23;;
19942;SDS011;10133;50.956;17.276;2023-02-01T07:57:57;12.03;;;2.17;;
19942;SDS011;10133;50.956;17.276;2023-02-01T08:00:25;15.27;;;2.37;;
19942;SDS011;10133;50.956;17.276;2023-02-01T08:03:11;13.80;;;2.23;;
19942;SDS011;10133;50.956;17.276;2023-02-01T08:05:37;10.33;;;2.23;;
19942;SDS011;10133;50.956;17.276;2023-02-01T08:08:05;13.50;;;2.20;;
19942;SDS011;10133;50.956;17.276;2023-02-01T08:10:32;13.37;;;2.63;;
19942;SDS011;10133;50.956;17.276;2023-02-01T08:13:01;8.73;;;2.00;;
19942;SDS011;10133;50.956;17.276;2023-02-01T08:15:28;11.60;;;2.23;;
19942;SDS011;10133;50.956;17.276;2023-02-01T08:17:55;13.33;;;2.30;;
19942;SDS011;10133;50.956;17.276;2023-02-01T08:20:23;13.07;;;2.33;;
19942;SDS011;10133;50.956;17.276;2023-02-01T08:22:50;16.17;;;2.50;;
19942;SDS011;10133;50.956;17.276;2023-02-01T08:25:20;10.03;;;2.27;;
19942;SDS011;10133;50.956;17.276;2023-02-01T08:27:47;12.37;;;2.40;;
19942;SDS011;10133;50.956;17.276;2023-02-01T08:30:14;14.70;;;2.10;;
19942;SDS011;10133;50.956;17.276;2023-02-01T08:32:41;10.67;;;2.30;;
19942;SDS011;10133;50.956;17.276;2023-02-01T08:35:08;14.80;;;2.67;;
19942;SDS011;10133;50.956;17.276;2023-02-01T08:37:35;13.33;;;2.90;;
19942;SDS011;10133;50.956;17.276;2023-02-01T08:40:03;10.43;;;2.20;;
19942;SDS011;10133;50.956;17.276;2023-02-01T08:42:30;9.30;;;1.90;;
19942;SDS011;10133;50.956;17.276;2023-02-01T08:45:16;7.63;;;1.80;;
19942;SDS011;10133;50.956;17.276;2023-02-01T08:47:45;14.03;;;2.17;;
19942;SDS011;10133;50.956;17.276;2023-02-01T08:50:15;11.30;;;2.27;;
19942;SDS011;10133;50.956;17.276;2023-02-01T08:52:42;13.57;;;2.63;;
19942;SDS011;10133;50.956;17.276;2023-02-01T08:55:09;12.20;;;2.30;;
19942;SDS011;10133;50.956;17.276;2023-02-01T08:57:37;10.70;;;2.50;;
19942;SDS011;10133;50.956;17.276;2023-02-01T09:00:05;11.60;;;2.63;;
19942;SDS011;10133;50.956;17.276;2023-02-01T09:02:38;12.13;;;2.40;;
19942;SDS011;10133;50.956;17.276;2023-02-01T09:05:05;12.73;;;2.53;;
19942;SDS011;10133;50.956;17.276;2023-02-01T09:07:32;9.20;;;2.20;;
19942;SDS011;10133;50.956;17.276;2023-02-01T09:10:01;11.50;;;2.53;;
19942;SDS011;10133;50.956;17.276;2023-02-01T09:12:28;8.03;;;2.50;;
19942;SDS011;10133;50.956;17.276;2023-02-01T09:14:56;10.77;;;2.13;;
19942;SDS011;10133;50.956;17.276;2023-02-01T09:17:27;6.90;;;2.33;;
19942;SDS011;10133;50.956;17.276;2023-02-01T09:19:56;8.63;;;2.23;;
19942;SDS011;10133;50.956;17.276;2023-02-01T09:22:23;9.63;;;2.67;;
19942;SDS011;10133;50.956;17.276;2023-02-01T09:24:50;10.73;;;2.43;;
19942;SDS011;10133;50.956;17.276;2023-02-01T09:27:20;10.27;;;2.53;;
19942;SDS011;10133;50.956;17.276;2023-02-01T09:29:47;9.93;;;2.47;;
19942;SDS011;10133;50.956;17.276;2023-02-01T09:32:19;12.83;;;2.70;;
19942;SDS011;10133;50.956;17.276;2023-02-01T09:34:47;8.47;;;2.23;;
19942;SDS011;10133;50.956;17.276;2023-02-01T09:37:15;7.23;;;1.70;;
19942;SDS011;10133;50.956;17.276;2023-02-01T09:39:42;6.93;;;1.83;;
19942;SDS011;10133;50.956;17.276;2023-02-01T09:47:17;10.67;;;1.90;;
19942;SDS011;10133;50.956;17.276;2023-02-01T09:50:08;8.30;;;1.90;;
19942;SDS011;10133;50.956;17.276;2023-02-01T09:52:44;3.97;;;1.70;;
19942;SDS011;10133;50.956;17.276;2023-02-01T09:55:20;3.93;;;1.60;;
19942;SDS011;10133;50.956;17.276;2023-02-01T09:58:04;5.73;;;2.00;;
19942;SDS011;10133;50.956;17.276;2023-02-01T10:00:34;7.17;;;2.13;;
19942;SDS011;10133;50.956;17.276;2023-02-01T10:03:03;3.90;;;1.63;;
19942;SDS011;10133;50.956;17.276;2023-02-01T10:08:19;5.37;;;1.93;;
19942;SDS011;10133;50.956;17.276;2023-02-01T10:16:37;2.90;;;1.53;;
19942;SDS011;10133;50.956;17.276;2023-02-01T10:19:20;5.53;;;1.60;;
19942;SDS011;10133;50.956;17.276;2023-02-01T10:22:11;6.73;;;1.67;;
19942;SDS011;10133;50.956;17.276;2023-02-01T10:24:47;5.80;;;1.73;;
19942;SDS011;10133;50.956;17.276;2023-02-01T10:27:29;4.93;;;1.57;;
19942;SDS011;10133;50.956;17.276;2023-02-01T10:30:04;3.57;;;1.80;;
19942;SDS011;10133;50.956;17.276;2023-02-01T10:32:40;7.40;;;1.37;;
19942;SDS011;10133;50.956;17.276;2023-02-01T10:35:15;5.00;;;1.77;;
19942;SDS011;10133;50.956;17.276;2023-02-01T10:37:50;5.33;;;1.40;;
19942;SDS011;10133;50.956;17.276;2023-02-01T10:40:19;6.37;;;2.03;;
19942;SDS011;10133;50.956;17.276;2023-02-01T10:42:56;3.60;;;1.73;;
19942;SDS011;10133;50.956;17.276;2023-02-01T10:45:27;7.60;;;2.03;;
19942;SDS011;10133;50.956;17.276;2023-02-01T10:47:57;6.13;;;1.80;;
19942;SDS011;10133;50.956;17.276;2023-02-01T10:56:06;8.60;;;2.17;;
19942;SDS011;10133;50.956;17.276;2023-02-01T10:58:35;5.87;;;2.17;;
19942;SDS011;10133;50.956;17.276;2023-02-01T11:01:09;6.83;;;2.03;;
19942;SDS011;10133;50.956;17.276;2023-02-01T11:03:55;6.33;;;1.87;;
19942;SDS011;10133;50.956;17.276;2023-02-01T11:06:27;9.57;;;2.13;;
19942;SDS011;10133;50.956;17.276;2023-02-01T11:08:57;6.27;;;2.30;;
19942;SDS011;10133;50.956;17.276;2023-02-01T11:11:26;7.43;;;2.10;;
19942;SDS011;10133;50.956;17.276;2023-02-01T11:13:55;7.93;;;2.00;;
19942;SDS011;10133;50.956;17.276;2023-02-01T11:16:35;8.13;;;2.17;;
19942;SDS011;10133;50.956;17.276;2023-02-01T11:19:04;6.43;;;2.13;;
19942;SDS011;10133;50.956;17.276;2023-02-01T11:21:32;6.97;;;2.13;;
19942;SDS011;10133;50.956;17.276;2023-02-01T11:24:01;8.27;;;2.40;;
19942;SDS011;10133;50.956;17.276;2023-02-01T11:26:30;6.20;;;2.40;;
19942;SDS011;10133;50.956;17.276;2023-02-01T11:29:01;7.43;;;2.10;;
19942;SDS011;10133;50.956;17.276;2023-02-01T11:31:30;7.13;;;1.97;;
19942;SDS011;10133;50.956;17.276;2023-02-01T11:34:04;9.53;;;2.53;;
19942;SDS011;10133;50.956;17.276;2023-02-01T11:36:33;9.93;;;2.50;;
19942;SDS011;10133;50.956;17.276;2023-02-01T11:41:42;7.00;;;2.30;;
19942;SDS011;10133;50.956;17.276;2023-02-01T11:50:12;5.13;;;2.10;;
19942;SDS011;10133;50.956;17.276;2023-02-01T11:58:22;5.33;;;1.80;;
19942;SDS011;10133;50.956;17.276;2023-02-01T12:09:10;4.40;;;1.80;;
19942;SDS011;10133;50.956;17.276;2023-02-01T12:23:46;5.77;;;1.90;;
19942;SDS011;10133;50.956;17.276;2023-02-01T12:34:35;4.60;;;1.70;;
19942;SDS011;10133;50.956;17.276;2023-02-01T12:39:38;4.73;;;1.63;;
19942;SDS011;10133;50.956;17.276;2023-02-01T12:42:32;4.47;;;1.70;;
19942;SDS011;10133;50.956;17.276;2023-02-01T12:51:02;3.93;;;1.57;;
19942;SDS011;10133;50.956;17.276;2023-02-01T12:56:35;3.00;;;1.60;;
19942;SDS011;10133;50.956;17.276;2023-02-01T12:59:53;3.30;;;1.17;;
19942;SDS011;10133;50.956;17.276;2023-02-01T13:04:37;6.63;;;1.97;;
19942;SDS011;10133;50.956;17.276;2023-02-01T13:07:19;2.87;;;1.37;;
19942;SDS011;10133;50.956;17.276;2023-02-01T13:09:53;2.37;;;1.40;;
19942;SDS011;10133;50.956;17.276;2023-02-01T13:12:49;2.73;;;1.57;;
19942;SDS011;10133;50.956;17.276;2023-02-01T13:15:26;3.47;;;1.47;;
19942;SDS011;10133;50.956;17.276;2023-02-01T13:18:01;2.43;;;1.50;;
19942;SDS011;10133;50.956;17.276;2023-02-01T13:20:32;3.77;;;1.50;;
19942;SDS011;10133;50.956;17.276;2023-02-01T13:23:48;2.00;;;1.17;;
19942;SDS011;10133;50.956;17.276;2023-02-01T13:25:51;8.53;;;2.00;;
19942;SDS011;10133;50.956;17.276;2023-02-01T13:28:24;3.77;;;1.50;;
19942;SDS011;10133;50.956;17.276;2023-02-01T13:36:32;2.83;;;1.50;;
19942;SDS011;10133;50.956;17.276;2023-02-01T13:42:41;4.03;;;1.53;;
19942;SDS011;10133;50.956;17.276;2023-02-01T13:44:57;4.47;;;1.77;;
19942;SDS011;10133;50.956;17.276;2023-02-01T13:47:28;3.57;;;1.50;;
19942;SDS011;10133;50.956;17.276;2023-02-01T13:50:20;4.40;;;1.67;;
19942;SDS011;10133;50.956;17.276;2023-02-01T13:55:32;4.93;;;1.70;;
19942;SDS011;10133;50.956;17.276;2023-02-01T13:58:06;3.30;;;2.23;;
19942;SDS011;10133;50.956;17.276;2023-02-01T14:00:45;4.60;;;1.73;;
19942;SDS011;10133;50.956;17.276;2023-02-01T14:03:18;4.13;;;1.60;;
19942;SDS011;10133;50.956;17.276;2023-02-01T14:08:23;5.10;;;1.10;;
19942;SDS011;10133;50.956;17.276;2023-02-01T14:11:03;3.00;;;1.40;;
19942;SDS011;10133;50.956;17.276;2023-02-01T14:13:41;3.70;;;1.20;;
19942;SDS011;10133;50.956;17.276;2023-02-01T14:16:12;3.97;;;1.50;;
19942;SDS011;10133;50.956;17.276;2023-02-01T14:21:23;3.50;;;1.60;;
19942;SDS011;10133;50.956;17.276;2023-02-01T14:24:02;4.23;;;1.60;;
19942;SDS011;10133;50.956;17.276;2023-02-01T14:26:43;4.40;;;1.53;;
19942;SDS011;10133;50.956;17.276;2023-02-01T14:34:37;5.53;;;1.80;;
19942;SDS011;10133;50.956;17.276;2023-02-01T14:42:27;4.43;;;1.50;;
19942;SDS011;10133;50.956;17.276;2023-02-01T14:47:55;5.73;;;1.97;;
19942;SDS011;10133;50.956;17.276;2023-02-01T15:01:27;5.03;;;2.30;;
19942;SDS011;10133;50.956;17.276;2023-02-01T15:09:08;10.20;;;2.17;;
19942;SDS011;10133;50.956;17.276;2023-02-01T15:11:58;7.20;;;2.50;;
19942;SDS011;10133;50.956;17.276;2023-02-01T15:14:40;5.57;;;1.77;;
19942;SDS011;10133;50.956;17.276;2023-02-01T15:19:59;6.40;;;1.60;;
19942;SDS011;10133;50.956;17.276;2023-02-01T15:22:30;7.70;;;1.90;;
19942;SDS011;10133;50.956;17.276;2023-02-01T15:24:58;8.20;;;2.00;;
19942;SDS011;10133;50.956;17.276;2023-02-01T15:27:27;8.23;;;2.33;;
19942;SDS011;10133;50.956;17.276;2023-02-01T15:30:04;6.83;;;1.80;;
19942;SDS011;10133;50.956;17.276;2023-02-01T15:32:36;4.53;;;1.93;;
19942;SDS011;10133;50.956;17.276;2023-02-01T15:35:05;4.23;;;1.90;;
19942;SDS011;10133;50.956;17.276;2023-02-01T15:40:53;7.20;;;2.47;;
19942;SDS011;10133;50.956;17.276;2023-02-01T15:43:22;8.33;;;2.40;;
19942;SDS011;10133;50.956;17.276;2023-02-01T15:45:49;8.03;;;2.63;;
19942;SDS011;10133;50.956;17.276;2023-02-01T15:48:22;5.40;;;2.43;;
19942;SDS011;10133;50.956;17.276;2023-02-01T15:50:53;11.03;;;3.60;;
19942;SDS011;10133;50.956;17.276;2023-02-01T15:53:23;10.43;;;2.60;;
19942;SDS011;10133;50.956;17.276;2023-02-01T15:55:55;5.90;;;2.47;;
19942;SDS011;10133;50.956;17.276;2023-02-01T15:58:26;9.70;;;2.63;;
19942;SDS011;10133;50.956;17.276;2023-02-01T16:00:55;8.47;;;2.93;;
19942;SDS011;10133;50.956;17.276;2023-02-01T16:03:38;5.47;;;2.67;;
19942;SDS011;10133;50.956;17.276;2023-02-01T16:06:07;7.60;;;2.90;;
19942;SDS011;10133;50.956;17.276;2023-02-01T16:08:37;6.60;;;2.23;;
19942;SDS011;10133;50.956;17.276;2023-02-01T16:11:20;4.40;;;1.80;;
19942;SDS011;10133;50.956;17.276;2023-02-01T16:13:49;4.53;;;1.50;;
19942;SDS011;10133;50.956;17.276;2023-02-01T16:16:16;2.50;;;1.30;;
19942;SDS011;10133;50.956;17.276;2023-02-01T16:18:43;4.70;;;1.70;;
19942;SDS011;10133;50.956;17.276;2023-02-01T16:21:11;3.33;;;1.97;;
19942;SDS011;10133;50.956;17.276;2023-02-01T16:23:38;5.57;;;2.30;;
19942;SDS011;10133;50.956;17.276;2023-02-01T16:26:05;5.97;;;2.67;;
19942;SDS011;10133;50.956;17.276;2023-02-01T16:28:32;6.83;;;2.63;;
19942;SDS011;10133;50.956;17.276;2023-02-01T16:31:00;10.10;;;3.90;;
19942;SDS011;10133;50.956;17.276;2023-02-01T16:33:27;7.37;;;2.93;;
19942;SDS011;10133;50.956;17.276;2023-02-01T16:35:55;4.67;;;1.90;;
19942;SDS011;10133;50.956;17.276;2023-02-01T16:38:26;8.43;;;2.10;;
19942;SDS011;10133;50.956;17.276;2023-02-01T16:40:53;6.20;;;1.90;;
19942;SDS011;10133;50.956;17.276;2023-02-01T16:43:21;5.93;;;2.17;;
19942;SDS011;10133;50.956;17.276;2023-02-01T16:45:50;4.43;;;2.20;;
19942;SDS011;10133;50.956;17.276;2023-02-01T16:48:33;6.40;;;2.40;;
19942;SDS011;10133;50.956;17.276;2023-02-01T16:51:03;8.27;;;2.87;;
19942;SDS011;10133;50.956;17.276;2023-02-01T16:53:35;9.97;;;3.67;;
19942;SDS011;10133;50.956;17.276;2023-02-01T16:56:19;11.43;;;3.53;;
19942;SDS011;10133;50.956;17.276;2023-02-01T16:58:49;13.10;;;2.80;;
19942;SDS011;10133;50.956;17.276;2023-02-01T17:01:17;16.63;;;3.40;;
19942;SDS011;10133;50.956;17.276;2023-02-01T17:03:45;7.17;;;2.30;;
19942;SDS011;10133;50.956;17.276;2023-02-01T17:06:13;9.03;;;3.10;;
19942;SDS011;10133;50.956;17.276;2023-02-01T17:08:43;8.30;;;2.73;;
19942;SDS011;10133;50.956;17.276;2023-02-01T17:11:12;7.10;;;2.70;;
19942;SDS011;10133;50.956;17.276;2023-02-01T17:13:40;9.83;;;2.80;;
19942;SDS011;10133;50.956;17.276;2023-02-01T17:16:11;7.60;;;2.70;;
19942;SDS011;10133;50.956;17.276;2023-02-01T17:18:47;12.17;;;3.03;;
19942;SDS011;10133;50.956;17.276;2023-02-01T17:21:26;15.10;;;3.57;;
19942;SDS011;10133;50.956;17.276;2023-02-01T17:23:55;15.37;;;3.60;;
19942;SDS011;10133;50.956;17.276;2023-02-01T17:26:25;10.97;;;3.13;;
19942;SDS011;10133;50.956;17.276;2023-02-01T17:28:52;8.77;;;3.40;;
19942;SDS011;10133;50.956;17.276;2023-02-01T17:31:19;11.00;;;3.37;;
19942;SDS011;10133;50.956;17.276;2023-02-01T17:33:46;11.87;;;3.30;;
19942;SDS011;10133;50.956;17.276;2023-02-01T17:36:14;10.83;;;3.53;;
19942;SDS011;10133;50.956;17.276;2023-02-01T17:38:43;8.47;;;3.17;;